Terminal Aerodrome Forecast
Issued by NWS

Home | Current Version | Previous Version | Text Only | Print | Product List | Glossary On
Versions: 1 2 3 4 5 6 7 8 9 10 11 12 13 14 15 16
000
FTUS43 KSGF 291500 AAA
TAFJLN
TAF AMD
KJLN 291520Z 2915/3012 20010KT P6SM SCT035 BKN070 OVC090
      TEMPO 2915/2919 -SHRA SCT035 OVC070
     FM292000 19010KT P6SM VCTS BKN040CB OVC080
     FM301000 18008KT P6SM VCSH SCT030 BKN070=

USA.gov is the U.S. government's official web portal to all federal, state and local government web resources and services.